createdAt,value
2019-03-16T00:01:15.683Z,10.32
2019-03-16T00:03:51.852Z,10.17
2019-03-16T00:06:27.992Z,10.38
2019-03-16T00:08:55.842Z,10.44
2019-03-16T00:11:27.486Z,10.12
2019-03-16T00:13:57.493Z,10.01
2019-03-16T00:16:34.097Z,10.23
2019-03-16T00:19:01.161Z,10.28
2019-03-16T00:21:32.129Z,10.20
2019-03-16T00:24:01.063Z,10.23
2019-03-16T00:26:30.823Z,10.06
2019-03-16T00:28:58.914Z,10.14
2019-03-16T00:31:33.052Z,10.26
2019-03-16T00:34:00.314Z,10.43
2019-03-16T00:36:29.154Z,10.30
2019-03-16T00:38:56.011Z,10.15
2019-03-16T00:41:27.759Z,10.07
2019-03-16T00:44:04.571Z,10.15
2019-03-16T00:46:32.246Z,10.32
2019-03-16T00:49:01.947Z,10.22
2019-03-16T00:51:32.015Z,10.08
2019-03-16T00:53:58.342Z,9.90
2019-03-16T00:56:27.471Z,9.97
2019-03-16T00:58:55.110Z,10.02
2019-03-16T01:01:24.061Z,10.09
2019-03-16T01:03:54.631Z,9.87
2019-03-16T01:06:25.217Z,9.80
2019-03-16T01:08:54.946Z,9.59
2019-03-16T01:11:23.544Z,9.48
2019-03-16T01:13:51.447Z,9.70
2019-03-16T01:16:19.244Z,9.69
2019-03-16T01:18:46.119Z,9.67
2019-03-16T01:21:17.086Z,9.61
2019-03-16T01:23:44.286Z,9.58
2019-03-16T01:26:26.459Z,9.58
2019-03-16T01:28:46.595Z,9.28
2019-03-16T01:31:14.364Z,9.43
2019-03-16T01:33:45.422Z,9.41
2019-03-16T01:36:26.567Z,9.36
2019-03-16T01:38:46.768Z,9.37
2019-03-16T01:41:17.627Z,9.16
2019-03-16T01:43:47.307Z,8.86
2019-03-16T01:46:14.679Z,8.89
2019-03-16T01:48:44.099Z,9.07
2019-03-16T01:51:13.057Z,9.12
2019-03-16T01:53:57.169Z,9.04
2019-03-16T01:56:23.904Z,9.04
2019-03-16T01:58:54.114Z,9.20
2019-03-16T02:01:20.798Z,9.49
2019-03-16T02:03:47.600Z,9.80
2019-03-16T02:09:00.093Z,9.59
2019-03-16T02:11:26.716Z,9.43
2019-03-16T02:13:53.639Z,9.18
2019-03-16T02:16:20.352Z,9.05
2019-03-16T02:18:46.961Z,9.10
2019-03-16T02:21:14.084Z,9.34
2019-03-16T02:23:42.440Z,9.46
2019-03-16T02:26:08.996Z,9.57
2019-03-16T02:28:36.054Z,9.50
2019-03-16T02:31:03.034Z,9.78
2019-03-16T02:33:29.971Z,9.62
2019-03-16T02:35:56.707Z,9.69
2019-03-16T02:38:23.311Z,9.34
2019-03-16T02:40:50.074Z,9.56
2019-03-16T02:43:16.771Z,9.77
2019-03-16T02:45:43.530Z,9.64
2019-03-16T02:48:10.342Z,9.02
2019-03-16T02:50:37.288Z,8.76
2019-03-16T02:53:03.908Z,9.00
2019-03-16T02:55:30.481Z,9.25
2019-03-16T02:57:57.439Z,9.20
2019-03-16T03:00:24.309Z,9.03
2019-03-16T03:02:50.933Z,9.02
2019-03-16T03:05:17.820Z,9.08
2019-03-16T03:07:44.660Z,9.16
2019-03-16T03:10:12.939Z,8.75
2019-03-16T03:12:39.631Z,8.63
2019-03-16T03:15:06.318Z,8.64
2019-03-16T03:17:32.921Z,8.81
2019-03-16T03:19:59.755Z,8.97
2019-03-16T03:22:26.949Z,9.05
2019-03-16T03:24:53.816Z,9.11
2019-03-16T03:27:20.430Z,9.24
2019-03-16T03:29:47.117Z,9.06
2019-03-16T03:32:14.133Z,9.24
2019-03-16T03:34:40.970Z,9.26
2019-03-16T03:37:07.973Z,9.20
2019-03-16T03:39:34.621Z,9.09
2019-03-16T03:42:01.306Z,9.25
2019-03-16T03:44:28.162Z,9.42
2019-03-16T03:46:55.430Z,9.52
2019-03-16T03:49:22.286Z,9.24
2019-03-16T03:51:49.260Z,9.24
2019-03-16T03:54:15.897Z,9.14
2019-03-16T03:56:43.568Z,9.11
2019-03-16T03:59:10.476Z,9.11
2019-03-16T04:01:37.369Z,9.31
2019-03-16T04:04:14.941Z,9.48
2019-03-16T04:06:34.288Z,9.70
2019-03-16T04:09:00.883Z,9.84
2019-03-16T04:11:27.762Z,9.64
2019-03-16T04:13:54.612Z,9.56
2019-03-16T04:16:21.475Z,9.36
2019-03-16T04:18:51.383Z,9.44
2019-03-16T04:21:16.684Z,9.18
2019-03-16T04:23:43.994Z,9.28
2019-03-16T04:26:10.719Z,9.04
2019-03-16T04:28:37.328Z,9.01
2019-03-16T04:31:04.020Z,8.97
2019-03-16T04:33:30.900Z,9.13
2019-03-16T04:35:57.859Z,8.98
2019-03-16T04:38:24.453Z,9.18
2019-03-16T04:40:51.057Z,9.24
2019-03-16T04:43:18.000Z,9.41
2019-03-16T04:45:44.595Z,9.19
2019-03-16T04:48:11.252Z,9.07
2019-03-16T04:50:38.130Z,9.00
2019-03-16T04:53:04.823Z,8.79
2019-03-16T04:55:31.491Z,9.22
2019-03-16T04:57:58.275Z,9.38
2019-03-16T05:00:24.914Z,9.40
2019-03-16T05:02:51.532Z,9.59
2019-03-16T05:05:18.645Z,9.91
2019-03-16T05:07:45.496Z,9.96
2019-03-16T05:10:12.408Z,9.93
2019-03-16T05:12:39.037Z,10.01
2019-03-16T05:15:05.704Z,10.17
2019-03-16T05:17:32.551Z,10.46
2019-03-16T05:19:59.178Z,10.11
2019-03-16T05:22:25.847Z,9.86
2019-03-16T05:24:52.688Z,9.88
2019-03-16T05:27:19.566Z,9.87
2019-03-16T05:29:46.829Z,9.81
2019-03-16T05:32:15.065Z,9.83
2019-03-16T05:34:55.663Z,9.81
2019-03-16T05:37:10.256Z,9.81
2019-03-16T05:39:36.899Z,9.89
2019-03-16T05:42:05.198Z,10.04
2019-03-16T05:44:32.170Z,9.93
2019-03-16T05:46:58.954Z,9.98
2019-03-16T05:49:25.600Z,10.18
2019-03-16T05:51:52.240Z,10.20
2019-03-16T05:54:19.581Z,10.29
2019-03-16T05:56:46.301Z,10.41
2019-03-16T05:59:13.062Z,10.43
2019-03-16T06:01:39.672Z,10.62
2019-03-16T06:04:06.431Z,10.78
2019-03-16T06:09:18.832Z,10.91
2019-03-16T06:11:45.763Z,10.79
2019-03-16T06:14:12.462Z,10.64
2019-03-16T06:16:39.393Z,10.92
2019-03-16T06:19:05.968Z,10.97
2019-03-16T06:21:32.826Z,10.84
2019-03-16T06:23:59.686Z,10.77
2019-03-16T06:26:26.559Z,10.93
2019-03-16T06:28:53.478Z,11.00
2019-03-16T06:31:20.373Z,11.21
2019-03-16T06:33:47.229Z,11.49
2019-03-16T06:36:13.846Z,11.30
2019-03-16T06:38:40.715Z,11.26
2019-03-16T06:41:07.366Z,11.18
2019-03-16T06:43:34.035Z,11.36
2019-03-16T06:46:00.835Z,11.41
2019-03-16T06:48:27.467Z,11.86
2019-03-16T06:50:54.061Z,12.00
2019-03-16T06:53:20.916Z,12.11
2019-03-16T06:55:47.671Z,12.11
2019-03-16T06:58:15.500Z,12.56
2019-03-16T07:00:42.141Z,12.58
2019-03-16T07:03:08.749Z,12.89
2019-03-16T07:05:38.597Z,13.01
2019-03-16T07:08:03.661Z,12.85
2019-03-16T07:10:30.411Z,12.74
2019-03-16T07:12:57.303Z,12.93
2019-03-16T07:15:23.880Z,12.90
2019-03-16T07:17:50.541Z,13.11
2019-03-16T07:20:17.541Z,13.17
2019-03-16T07:22:44.446Z,13.11
2019-03-16T07:25:11.179Z,12.79
2019-03-16T07:27:37.928Z,12.85
2019-03-16T07:30:04.568Z,12.91
2019-03-16T07:32:31.178Z,13.21
2019-03-16T07:34:57.892Z,13.11
2019-03-16T07:37:24.807Z,13.12
2019-03-16T07:39:51.726Z,13.43
2019-03-16T07:42:18.342Z,13.75
2019-03-16T07:44:44.931Z,13.94
2019-03-16T07:47:11.851Z,14.20
2019-03-16T07:49:39.136Z,14.38
2019-03-16T07:52:06.124Z,14.17
2019-03-16T07:54:33.043Z,14.39
2019-03-16T07:56:59.685Z,14.38
2019-03-16T07:59:26.287Z,14.37
2019-03-16T08:01:53.464Z,14.37
2019-03-16T08:04:20.185Z,14.63
2019-03-16T08:06:47.549Z,15.02
2019-03-16T08:09:14.383Z,15.17
2019-03-16T08:11:41.337Z,15.35
2019-03-16T08:14:08.246Z,15.67
2019-03-16T08:16:34.918Z,15.71
2019-03-16T08:19:01.618Z,15.93
2019-03-16T08:21:28.536Z,16.04
2019-03-16T08:23:55.520Z,16.21
2019-03-16T08:26:22.435Z,16.14
2019-03-16T08:28:49.630Z,16.33
2019-03-16T08:31:17.838Z,16.44
2019-03-16T08:33:44.552Z,16.55
2019-03-16T08:36:11.488Z,16.64
2019-03-16T08:38:38.115Z,16.87
2019-03-16T08:41:05.032Z,16.75
2019-03-16T08:43:31.954Z,16.85
2019-03-16T08:45:58.726Z,17.03
2019-03-16T08:48:25.417Z,16.96
2019-03-16T08:50:52.215Z,16.73
2019-03-16T08:53:18.936Z,16.73
2019-03-16T08:55:48.747Z,16.70
2019-03-16T08:58:15.558Z,16.69
2019-03-16T09:00:42.996Z,16.67
2019-03-16T09:03:10.219Z,16.45
2019-03-16T09:05:37.242Z,16.04
2019-03-16T09:08:04.591Z,15.41
2019-03-16T09:10:31.476Z,15.33
2019-03-16T09:12:58.186Z,15.66
2019-03-16T09:15:25.151Z,15.89
2019-03-16T09:17:52.695Z,16.16
2019-03-16T09:20:19.472Z,16.26
2019-03-16T09:22:46.460Z,16.31
2019-03-16T09:25:13.534Z,16.30
2019-03-16T09:27:40.694Z,16.16
2019-03-16T09:30:07.916Z,16.26
2019-03-16T09:32:34.910Z,16.37
2019-03-16T09:35:01.875Z,15.97
2019-03-16T09:37:28.655Z,15.87
2019-03-16T09:39:55.377Z,15.98
2019-03-16T09:42:22.414Z,16.33
2019-03-16T09:44:49.211Z,16.63
2019-03-16T09:47:15.947Z,16.77
2019-03-16T09:49:42.853Z,16.93
2019-03-16T09:52:09.557Z,16.93
2019-03-16T09:54:36.612Z,16.94
2019-03-16T09:57:03.530Z,17.08
2019-03-16T09:59:30.726Z,17.21
2019-03-16T10:01:57.359Z,17.41
2019-03-16T10:04:24.209Z,17.75
2019-03-16T10:06:51.429Z,17.73
2019-03-16T10:09:19.534Z,17.72
2019-03-16T10:11:46.263Z,17.78
2019-03-16T10:14:13.357Z,17.79
2019-03-16T10:16:40.388Z,17.71
2019-03-16T10:19:07.850Z,17.65
2019-03-16T10:21:34.831Z,17.76
2019-03-16T10:24:01.579Z,17.61
2019-03-16T10:26:28.648Z,17.27
2019-03-16T10:28:55.774Z,17.18
2019-03-16T10:31:22.563Z,17.11
2019-03-16T10:33:50.003Z,17.02
2019-03-16T10:36:16.674Z,16.63
2019-03-16T10:38:43.590Z,16.94
2019-03-16T10:41:10.447Z,17.36
2019-03-16T10:43:37.064Z,17.59
2019-03-16T10:46:03.958Z,17.57
2019-03-16T10:48:30.833Z,17.35
2019-03-16T10:50:58.001Z,17.11
2019-03-16T10:53:24.898Z,17.20
2019-03-16T10:55:52.132Z,17.24
2019-03-16T10:58:20.225Z,17.19
2019-03-16T11:00:47.022Z,17.31
2019-03-16T11:03:13.672Z,17.60
2019-03-16T11:05:40.514Z,18.07
2019-03-16T11:08:07.545Z,18.42
2019-03-16T11:10:34.564Z,18.11
2019-03-16T11:13:01.650Z,18.30
2019-03-16T11:15:28.556Z,18.61
2019-03-16T11:17:55.481Z,18.67
2019-03-16T11:20:22.539Z,18.47
2019-03-16T11:22:50.702Z,18.21
2019-03-16T11:25:17.350Z,18.20
2019-03-16T11:27:44.011Z,18.16
2019-03-16T11:30:10.637Z,18.10
2019-03-16T11:32:37.538Z,17.86
2019-03-16T11:35:04.206Z,18.15
2019-03-16T11:37:30.843Z,18.54
2019-03-16T11:39:57.725Z,18.59
2019-03-16T11:42:24.641Z,18.58
2019-03-16T11:44:51.257Z,18.90
2019-03-16T11:47:17.862Z,18.94
2019-03-16T11:49:44.692Z,18.82
2019-03-16T11:52:11.386Z,18.87
2019-03-16T11:54:38.007Z,18.88
2019-03-16T11:57:05.158Z,19.01
2019-03-16T11:59:31.825Z,19.12
2019-03-16T12:02:05.273Z,18.98
2019-03-16T12:04:27.508Z,18.98
2019-03-16T12:09:30.352Z,18.89
2019-03-16T12:11:57.318Z,19.15
2019-03-16T12:14:24.373Z,19.36
2019-03-16T12:16:52.485Z,19.70
2019-03-16T12:19:19.301Z,19.76
2019-03-16T12:21:46.032Z,19.68
2019-03-16T12:24:12.671Z,19.87
2019-03-16T12:26:39.665Z,19.62
2019-03-16T12:29:06.535Z,19.60
2019-03-16T12:31:33.407Z,19.90
2019-03-16T12:34:00.324Z,20.26
2019-03-16T12:36:26.948Z,20.08
2019-03-16T12:38:53.940Z,20.03
2019-03-16T12:41:20.647Z,19.98
2019-03-16T12:43:48.291Z,20.19
2019-03-16T12:46:15.905Z,20.50
2019-03-16T12:48:43.726Z,20.87
2019-03-16T12:51:12.016Z,21.26
2019-03-16T12:53:39.603Z,20.91
2019-03-16T12:56:06.272Z,20.65
2019-03-16T12:58:33.165Z,20.45
2019-03-16T13:01:00.035Z,20.78
2019-03-16T13:03:27.511Z,21.12
2019-03-16T13:05:54.404Z,21.42
2019-03-16T13:08:21.154Z,20.92
2019-03-16T13:10:48.461Z,20.52
2019-03-16T13:13:15.443Z,20.77
2019-03-16T13:15:43.213Z,20.85
2019-03-16T13:18:10.782Z,20.62
2019-03-16T13:20:37.686Z,20.70
2019-03-16T13:23:04.334Z,21.19
2019-03-16T13:25:31.017Z,21.06
2019-03-16T13:28:01.364Z,20.95
2019-03-16T13:30:32.951Z,20.86
2019-03-16T13:33:03.590Z,20.41
2019-03-16T13:35:35.498Z,20.62
2019-03-16T13:38:04.763Z,21.00
2019-03-16T13:40:36.288Z,21.02
2019-03-16T13:43:05.928Z,21.01
2019-03-16T13:45:37.142Z,21.19
2019-03-16T13:48:04.401Z,21.55
2019-03-16T13:53:18.015Z,23.15
2019-03-16T13:55:46.507Z,23.49
2019-03-16T13:58:14.178Z,22.81
2019-03-16T14:03:30.513Z,22.31
2019-03-16T14:08:46.241Z,22.19
2019-03-16T14:11:18.921Z,22.22
2019-03-16T14:13:45.567Z,22.47
2019-03-16T14:16:18.345Z,22.33
2019-03-16T14:18:45.782Z,22.44
2019-03-16T14:21:13.669Z,21.69
2019-03-16T14:23:40.836Z,21.37
2019-03-16T14:26:12.122Z,21.22
2019-03-16T14:28:41.002Z,20.92
2019-03-16T14:31:10.562Z,20.90
2019-03-16T14:33:40.144Z,21.05
2019-03-16T14:36:25.845Z,21.07
2019-03-16T14:38:54.478Z,21.18
2019-03-16T14:41:33.408Z,21.14
2019-03-16T14:44:02.219Z,21.53
2019-03-16T14:46:32.634Z,21.63
2019-03-16T14:49:02.671Z,21.32
2019-03-16T14:51:31.762Z,21.39
2019-03-16T14:53:59.128Z,21.15
2019-03-16T14:56:30.440Z,21.31
2019-03-16T14:58:58.552Z,21.26
2019-03-16T15:01:25.578Z,20.99
2019-03-16T15:03:52.253Z,21.11
2019-03-16T15:06:19.207Z,21.02
2019-03-16T15:08:46.251Z,21.06
2019-03-16T15:11:13.178Z,21.06
2019-03-16T15:13:41.248Z,21.28
2019-03-16T15:16:08.672Z,21.22
2019-03-16T15:18:35.637Z,21.28
2019-03-16T15:21:02.595Z,21.49
2019-03-16T15:23:29.562Z,21.69
2019-03-16T15:25:56.693Z,21.79
2019-03-16T15:28:24.764Z,21.76
2019-03-16T15:30:51.519Z,21.54
2019-03-16T15:33:18.516Z,21.30
2019-03-16T15:35:45.223Z,21.18
2019-03-16T15:38:12.125Z,21.33
2019-03-16T15:40:38.953Z,21.07
2019-03-16T15:43:05.962Z,20.83
2019-03-16T15:45:32.678Z,20.88
2019-03-16T15:47:59.632Z,20.81
2019-03-16T15:50:26.855Z,20.83
2019-03-16T15:52:55.208Z,21.05
2019-03-16T15:55:21.855Z,21.10
2019-03-16T15:57:48.481Z,20.89
2019-03-16T16:00:15.826Z,20.88
2019-03-16T16:02:43.127Z,20.99
2019-03-16T16:05:10.566Z,20.94
2019-03-16T16:10:25.920Z,20.93
2019-03-16T16:13:11.119Z,20.84
2019-03-16T16:15:39.405Z,20.78
2019-03-16T16:18:07.444Z,20.64
2019-03-16T16:20:36.699Z,20.56
2019-03-16T16:23:07.010Z,20.35
2019-03-16T16:25:34.712Z,20.40
2019-03-16T16:28:05.534Z,20.21
2019-03-16T16:30:33.972Z,20.08
2019-03-16T16:35:48.181Z,19.98
2019-03-16T16:38:19.866Z,19.76
2019-03-16T16:40:47.662Z,19.54
2019-03-16T16:46:05.045Z,19.24
2019-03-16T16:48:32.954Z,19.17
2019-03-16T16:51:04.870Z,19.10
2019-03-16T16:53:33.670Z,18.91
2019-03-16T16:56:06.820Z,18.83
2019-03-16T16:58:37.087Z,18.75
2019-03-16T17:01:08.037Z,18.67
2019-03-16T17:03:34.989Z,18.61
2019-03-16T17:06:02.983Z,18.58
2019-03-16T17:08:29.917Z,18.39
2019-03-16T17:10:56.680Z,18.05
2019-03-16T17:13:23.273Z,17.85
2019-03-16T17:15:49.993Z,17.74
2019-03-16T17:18:16.621Z,17.58
2019-03-16T17:20:43.247Z,17.53
2019-03-16T17:23:11.141Z,17.49
2019-03-16T17:25:38.148Z,17.36
2019-03-16T17:28:05.494Z,17.32
2019-03-16T17:30:32.193Z,17.22
2019-03-16T17:32:59.796Z,17.14
2019-03-16T17:35:27.172Z,17.07
2019-03-16T17:37:53.797Z,17.02
2019-03-16T17:40:20.443Z,16.92
2019-03-16T17:42:47.320Z,16.78
2019-03-16T17:45:13.935Z,16.74
2019-03-16T17:47:40.855Z,16.71
2019-03-16T17:50:07.580Z,16.65
2019-03-16T17:52:45.278Z,16.51
2019-03-16T17:55:11.909Z,16.59
2019-03-16T17:57:38.935Z,16.48
2019-03-16T18:00:05.747Z,16.26
2019-03-16T18:02:32.449Z,16.14
2019-03-16T18:05:02.264Z,16.03
2019-03-16T18:07:40.972Z,16.08
2019-03-16T18:10:13.961Z,15.95
2019-03-16T18:12:43.049Z,15.83
2019-03-16T18:15:11.904Z,15.83
2019-03-16T18:17:46.977Z,15.72
2019-03-16T18:20:17.603Z,15.73
2019-03-16T18:25:33.802Z,15.56
2019-03-16T18:28:05.098Z,15.37
2019-03-16T18:30:34.705Z,15.54
2019-03-16T18:33:03.695Z,15.32
2019-03-16T18:35:36.750Z,15.29
2019-03-16T18:38:06.668Z,15.34
2019-03-16T18:40:34.802Z,15.35
2019-03-16T18:43:07.708Z,15.21
2019-03-16T18:48:21.355Z,15.10
2019-03-16T18:50:53.246Z,15.20
2019-03-16T18:53:20.133Z,15.18
2019-03-16T18:55:50.104Z,15.07
2019-03-16T18:58:17.252Z,14.96
2019-03-16T19:00:46.265Z,14.76
2019-03-16T19:03:17.410Z,14.58
2019-03-16T19:05:49.343Z,14.49
2019-03-16T19:08:19.808Z,14.48
2019-03-16T19:10:48.578Z,14.35
2019-03-16T19:13:15.473Z,14.33
2019-03-16T19:18:29.875Z,14.39
2019-03-16T19:21:01.058Z,14.46
2019-03-16T19:23:29.163Z,14.50
2019-03-16T19:26:00.046Z,14.58
2019-03-16T19:31:20.795Z,14.14
2019-03-16T19:33:53.021Z,13.79
2019-03-16T19:36:19.991Z,13.73
2019-03-16T19:38:47.607Z,13.71
2019-03-16T19:41:18.237Z,13.67
2019-03-16T19:46:36.550Z,13.56
2019-03-16T19:49:11.755Z,13.53
2019-03-16T19:51:41.631Z,13.39
2019-03-16T19:54:10.371Z,13.25
2019-03-16T19:56:37.258Z,13.18
2019-03-16T19:59:08.517Z,13.20
2019-03-16T20:01:36.963Z,13.21
2019-03-16T20:04:03.852Z,13.18
2019-03-16T20:09:16.550Z,13.17
2019-03-16T20:11:43.431Z,13.12
2019-03-16T20:14:11.813Z,13.22
2019-03-16T20:16:44.823Z,13.40
2019-03-16T20:19:14.532Z,13.39
2019-03-16T20:21:43.776Z,13.33
2019-03-16T20:24:12.812Z,13.34
2019-03-16T20:26:44.943Z,13.27
2019-03-16T20:29:12.546Z,13.30
2019-03-16T20:31:46.769Z,13.32
2019-03-16T20:34:13.260Z,13.28
2019-03-16T20:36:42.178Z,13.14
2019-03-16T20:39:10.812Z,12.93
2019-03-16T20:41:42.868Z,12.69
2019-03-16T20:44:12.225Z,12.59
2019-03-16T20:46:44.672Z,12.60
2019-03-16T20:49:16.126Z,12.59
2019-03-16T20:51:45.850Z,12.58
2019-03-16T20:54:17.179Z,12.62
2019-03-16T20:56:47.481Z,12.45
2019-03-16T20:59:17.366Z,12.48
2019-03-16T21:01:46.202Z,12.79
2019-03-16T21:04:15.701Z,12.56
2019-03-16T21:06:48.541Z,12.42
2019-03-16T21:09:15.260Z,12.46
2019-03-16T21:11:42.917Z,12.50
2019-03-16T21:14:13.227Z,12.41
2019-03-16T21:16:40.506Z,12.40
2019-03-16T21:19:13.409Z,12.42
2019-03-16T21:21:45.822Z,12.49
2019-03-16T21:24:14.880Z,12.22
2019-03-16T21:26:52.564Z,12.19
2019-03-16T21:29:13.051Z,12.26
2019-03-16T21:31:42.873Z,12.26
2019-03-16T21:34:13.596Z,11.89
2019-03-16T21:39:32.528Z,11.93
2019-03-16T21:42:03.523Z,11.90
2019-03-16T21:44:33.889Z,12.19
2019-03-16T21:49:47.139Z,12.16
2019-03-16T21:52:14.716Z,11.91
2019-03-16T21:54:45.942Z,11.67
2019-03-16T21:57:18.992Z,11.73
2019-03-16T21:59:48.457Z,11.81
2019-03-16T22:02:19.196Z,11.89
2019-03-16T22:04:52.315Z,11.98
2019-03-16T22:07:20.416Z,12.01
2019-03-16T22:09:47.046Z,11.61
2019-03-16T22:12:13.931Z,11.55
2019-03-16T22:14:40.631Z,11.57
2019-03-16T22:17:07.286Z,11.41
2019-03-16T22:19:33.930Z,11.59
2019-03-16T22:22:00.605Z,11.38
2019-03-16T22:24:27.208Z,11.50
2019-03-16T22:26:53.915Z,11.69
2019-03-16T22:29:20.501Z,11.75
2019-03-16T22:31:47.127Z,11.86
2019-03-16T22:34:13.784Z,11.72
2019-03-16T22:36:40.512Z,11.53
2019-03-16T22:39:07.117Z,11.48
2019-03-16T22:41:33.775Z,11.48
2019-03-16T22:44:00.386Z,11.32
2019-03-16T22:46:27.048Z,11.18
2019-03-16T22:48:53.699Z,11.14
2019-03-16T22:51:21.069Z,11.20
2019-03-16T22:53:47.739Z,11.10
2019-03-16T22:56:14.356Z,11.16
2019-03-16T22:58:41.676Z,11.31
2019-03-16T23:01:15.940Z,11.34
2019-03-16T23:03:42.633Z,11.30
2019-03-16T23:06:12.623Z,11.18
2019-03-16T23:08:37.805Z,11.01
2019-03-16T23:11:04.576Z,11.03
2019-03-16T23:13:31.165Z,10.79
2019-03-16T23:15:57.968Z,10.55
2019-03-16T23:18:24.586Z,10.87
2019-03-16T23:20:51.891Z,10.90
2019-03-16T23:23:18.508Z,10.87
2019-03-16T23:25:45.176Z,10.75
2019-03-16T23:28:11.932Z,10.81
2019-03-16T23:30:38.555Z,10.77
2019-03-16T23:33:05.200Z,10.83
2019-03-16T23:35:31.810Z,10.77
2019-03-16T23:37:58.402Z,10.80
2019-03-16T23:40:25.098Z,10.83
2019-03-16T23:42:51.708Z,10.90
2019-03-16T23:45:18.361Z,10.80
2019-03-16T23:47:44.975Z,10.55
2019-03-16T23:50:11.611Z,10.56
2019-03-16T23:52:38.315Z,10.63
2019-03-16T23:55:04.901Z,10.57
2019-03-16T23:57:31.516Z,10.54
2019-03-16T23:59:58.101Z,10.55
